createdAt,value
2019-03-21T00:01:22.630Z,11.06
2019-03-21T00:03:48.960Z,11.06
2019-03-21T00:06:15.643Z,11.14
2019-03-21T00:08:40.076Z,11.03
2019-03-21T00:11:13.129Z,11.00
2019-03-21T00:13:37.550Z,11.27
2019-03-21T00:16:03.423Z,11.12
2019-03-21T00:18:27.824Z,11.08
2019-03-21T00:20:52.273Z,11.04
2019-03-21T00:23:16.674Z,11.02
2019-03-21T00:25:41.175Z,11.27
2019-03-21T00:28:05.729Z,11.41
2019-03-21T00:30:30.160Z,11.33
2019-03-21T00:32:56.427Z,11.73
2019-03-21T00:35:20.983Z,11.76
2019-03-21T00:37:45.551Z,11.79
2019-03-21T00:40:18.911Z,11.96
2019-03-21T00:42:43.350Z,11.82
2019-03-21T00:45:10.830Z,11.88
2019-03-21T00:47:35.288Z,11.79
2019-03-21T00:49:59.703Z,11.74
2019-03-21T00:52:24.151Z,12.03
2019-03-21T00:54:48.556Z,11.88
2019-03-21T00:57:13.004Z,12.08
2019-03-21T00:59:37.410Z,11.73
2019-03-21T01:02:01.867Z,12.01
2019-03-21T01:04:27.735Z,12.30
2019-03-21T01:06:52.174Z,12.50
2019-03-21T01:09:16.731Z,12.39
2019-03-21T01:11:41.265Z,12.10
2019-03-21T01:14:05.804Z,12.08
2019-03-21T01:16:30.250Z,12.54
2019-03-21T01:18:54.674Z,12.39
2019-03-21T01:21:19.121Z,12.15
2019-03-21T01:23:43.533Z,12.01
2019-03-21T01:26:09.799Z,11.99
2019-03-21T01:28:34.325Z,12.09
2019-03-21T01:30:58.743Z,12.21
2019-03-21T01:33:23.244Z,12.12
2019-03-21T01:35:47.658Z,11.84
2019-03-21T01:38:12.106Z,12.05
2019-03-21T02:32:46.609Z,11.49
2019-03-21T02:35:11.207Z,11.63
2019-03-21T02:37:35.616Z,11.77
2019-03-21T02:40:00.543Z,11.85
2019-03-21T02:42:25.463Z,11.57
2019-03-21T02:44:49.998Z,11.93
2019-03-21T02:47:14.620Z,11.99
2019-03-21T02:49:39.065Z,11.74
2019-03-21T02:52:03.474Z,11.59
2019-03-21T02:54:27.994Z,11.83
2019-03-21T02:56:53.257Z,11.91
2019-03-21T02:59:17.679Z,11.68
2019-03-21T03:01:42.137Z,11.60
2019-03-21T03:04:06.564Z,11.61
2019-03-21T03:06:30.985Z,11.91
2019-03-21T03:08:55.398Z,11.87
2019-03-21T03:11:22.638Z,11.84
2019-03-21T03:13:49.702Z,11.92
2019-03-21T03:16:14.112Z,11.66
2019-03-21T03:18:38.516Z,11.77
2019-03-21T03:21:02.955Z,12.03
2019-03-21T03:23:27.351Z,11.62
2019-03-21T03:25:51.884Z,11.95
2019-03-21T03:28:37.633Z,11.92
2019-03-21T03:31:02.048Z,11.63
2019-03-21T03:33:26.981Z,11.69
2019-03-21T03:35:51.495Z,12.11
2019-03-21T03:38:15.918Z,11.89
2019-03-21T03:40:55.397Z,12.25
2019-03-21T03:43:19.915Z,12.58
2019-03-21T03:45:44.961Z,12.48
2019-03-21T03:48:09.448Z,12.18
2019-03-21T03:50:33.931Z,12.28
2019-03-21T03:52:59.202Z,12.27
2019-03-21T03:55:23.713Z,12.41
2019-03-21T03:57:51.015Z,12.34
2019-03-21T04:00:22.764Z,12.51
2019-03-21T04:02:49.166Z,12.42
2019-03-21T04:05:14.596Z,12.36
2019-03-21T04:07:39.518Z,12.10
2019-03-21T04:10:05.975Z,12.46
2019-03-21T04:12:30.835Z,12.29
2019-03-21T04:14:55.234Z,12.31
2019-03-21T04:17:19.668Z,12.05
2019-03-21T04:19:44.092Z,11.70
2019-03-21T04:22:08.591Z,11.40
2019-03-21T04:24:33.071Z,11.71
2019-03-21T04:26:57.559Z,11.75
2019-03-21T04:29:21.971Z,11.76
2019-03-21T04:31:46.426Z,11.74
2019-03-21T04:34:11.212Z,11.54
2019-03-21T04:36:37.261Z,11.58
2019-03-21T04:39:01.684Z,11.58
2019-03-21T04:41:26.106Z,11.69
2019-03-21T04:43:50.530Z,11.65
2019-03-21T04:46:14.943Z,11.88
2019-03-21T04:48:39.523Z,11.73
2019-03-21T04:51:04.011Z,11.78
2019-03-21T04:53:28.441Z,11.65
2019-03-21T04:55:53.157Z,11.34
2019-03-21T04:58:17.594Z,11.39
2019-03-21T05:00:43.744Z,11.78
2019-03-21T05:03:13.949Z,11.58
2019-03-21T05:05:38.421Z,12.03
2019-03-21T05:08:03.012Z,11.84
2019-03-21T05:10:27.424Z,11.71
2019-03-21T05:12:52.224Z,11.34
2019-03-21T05:15:19.930Z,11.94
2019-03-21T05:17:44.792Z,11.84
2019-03-21T05:20:15.114Z,11.83
2019-03-21T05:22:39.612Z,11.80
2019-03-21T05:25:06.006Z,11.66
2019-03-21T05:27:30.440Z,11.63
2019-03-21T05:29:54.852Z,11.49
2019-03-21T05:32:19.290Z,11.50
2019-03-21T05:34:43.767Z,11.56
2019-03-21T05:37:08.183Z,11.49
2019-03-21T05:39:32.704Z,11.56
2019-03-21T05:41:57.126Z,11.11
2019-03-21T05:44:24.598Z,11.28
2019-03-21T05:46:50.528Z,11.56
2019-03-21T05:49:14.969Z,11.48
2019-03-21T05:51:39.377Z,11.59
2019-03-21T05:54:03.870Z,11.40
2019-03-21T05:56:28.278Z,11.44
2019-03-21T05:58:52.713Z,11.53
2019-03-21T06:01:17.142Z,11.84
2019-03-21T06:03:46.853Z,11.56
2019-03-21T06:06:16.869Z,11.62
2019-03-21T06:08:41.955Z,11.42
2019-03-21T06:11:06.490Z,11.71
2019-03-21T06:13:30.935Z,11.59
2019-03-21T06:15:56.916Z,11.52
2019-03-21T06:18:26.983Z,11.62
2019-03-21T06:21:00.438Z,11.68
2019-03-21T06:23:44.423Z,11.81
2019-03-21T06:26:23.497Z,11.66
2019-03-21T06:28:47.938Z,11.52
2019-03-21T06:31:12.372Z,11.41
2019-03-21T06:33:36.798Z,11.48
2019-03-21T06:36:01.224Z,11.44
2019-03-21T06:38:25.634Z,11.24
2019-03-21T06:40:50.078Z,11.46
2019-03-21T06:43:14.579Z,11.72
2019-03-21T06:45:47.495Z,11.74
2019-03-21T06:48:05.292Z,11.83
2019-03-21T06:50:29.728Z,11.44
2019-03-21T06:52:54.159Z,11.60
2019-03-21T06:55:18.594Z,11.74
2019-03-21T06:57:43.002Z,11.56
2019-03-21T07:00:09.589Z,11.73
2019-03-21T07:02:33.991Z,11.68
2019-03-21T07:04:58.425Z,11.33
2019-03-21T07:07:22.837Z,11.34
2019-03-21T07:09:47.320Z,11.49
2019-03-21T07:12:11.815Z,11.82
2019-03-21T07:14:36.320Z,11.64
2019-03-21T07:17:00.974Z,11.71
2019-03-21T07:19:25.677Z,11.91
2019-03-21T07:21:50.098Z,11.64
2019-03-21T07:24:14.515Z,11.84
2019-03-21T07:26:38.958Z,12.14
2019-03-21T07:29:03.370Z,11.98
2019-03-21T07:31:29.452Z,12.10
2019-03-21T07:33:58.380Z,12.13
2019-03-21T07:36:26.337Z,12.32
2019-03-21T07:38:54.981Z,12.16
2019-03-21T07:41:22.262Z,11.94
2019-03-21T07:43:49.550Z,12.34
2019-03-21T07:46:14.894Z,12.41
2019-03-21T07:48:39.437Z,12.68
2019-03-21T07:51:03.866Z,12.30
2019-03-21T07:53:28.453Z,12.44
2019-03-21T07:55:53.036Z,12.39
2019-03-21T07:58:17.645Z,12.38
2019-03-21T08:00:42.082Z,12.37
2019-03-21T08:03:06.504Z,12.27
2019-03-21T08:05:39.753Z,12.63
2019-03-21T08:07:57.047Z,12.57
2019-03-21T08:10:21.518Z,13.05
2019-03-21T08:12:45.974Z,12.78
2019-03-21T08:15:17.657Z,12.40
2019-03-21T08:17:42.230Z,12.79
2019-03-21T08:20:09.684Z,12.79
2019-03-21T08:22:34.134Z,12.61
2019-03-21T08:24:58.546Z,12.95
2019-03-21T08:27:23.076Z,12.91
2019-03-21T08:32:10.679Z,13.00
2019-03-21T08:34:35.102Z,12.99
2019-03-21T08:36:59.529Z,12.99
2019-03-21T08:39:24.052Z,13.14
2019-03-21T08:41:48.450Z,13.13
2019-03-21T08:44:12.872Z,12.80
2019-03-21T08:46:37.311Z,13.00
2019-03-21T08:49:01.886Z,13.50
2019-03-21T08:51:26.335Z,13.39
2019-03-21T08:53:50.764Z,13.10
2019-03-21T08:56:15.169Z,12.78
2019-03-21T08:58:39.606Z,12.82
2019-03-21T09:01:04.153Z,12.69
2019-03-21T09:03:28.597Z,12.78
2019-03-21T09:05:53.002Z,12.85
2019-03-21T09:08:17.446Z,13.20
2019-03-21T09:10:41.876Z,13.29
2019-03-21T09:13:06.476Z,13.26
2019-03-21T09:15:30.896Z,12.91
2019-03-21T09:17:55.592Z,13.10
2019-03-21T09:20:20.037Z,13.47
2019-03-21T09:22:44.479Z,13.49
2019-03-21T09:25:09.255Z,13.32
2019-03-21T09:27:33.708Z,13.27
2019-03-21T09:29:58.119Z,13.11
2019-03-21T09:32:22.874Z,13.41
2019-03-21T09:34:47.335Z,13.31
2019-03-21T09:37:11.827Z,12.97
2019-03-21T09:39:36.254Z,13.05
2019-03-21T09:42:00.750Z,12.78
2019-03-21T09:44:26.827Z,12.91
2019-03-21T09:46:51.753Z,13.12
2019-03-21T09:49:16.201Z,13.05
2019-03-21T09:51:40.619Z,13.10
2019-03-21T09:54:09.788Z,13.44
2019-03-21T09:56:31.313Z,13.44
2019-03-21T09:58:55.810Z,13.16
2019-03-21T10:01:20.361Z,13.24
2019-03-21T10:03:44.858Z,13.39
2019-03-21T10:06:09.252Z,13.20
2019-03-21T10:08:33.693Z,13.37
2019-03-21T10:10:58.129Z,13.28
2019-03-21T10:13:22.559Z,13.49
2019-03-21T10:15:48.483Z,13.35
2019-03-21T10:18:12.994Z,13.26
2019-03-21T10:20:37.460Z,13.19
2019-03-21T10:23:01.950Z,13.46
2019-03-21T10:25:26.968Z,13.13
2019-03-21T10:27:51.737Z,12.99
2019-03-21T10:30:31.013Z,13.26
2019-03-21T10:32:55.436Z,13.29
2019-03-21T10:35:22.656Z,12.99
2019-03-21T10:37:47.075Z,13.04
2019-03-21T10:40:13.064Z,13.14
2019-03-21T10:42:37.506Z,12.74
2019-03-21T10:45:01.933Z,12.94
2019-03-21T10:47:26.435Z,13.19
2019-03-21T10:49:50.852Z,13.07
2019-03-21T10:52:15.275Z,12.98
2019-03-21T10:54:39.720Z,12.98
2019-03-21T10:57:04.131Z,12.91
2019-03-21T10:59:28.566Z,13.07
2019-03-21T11:01:52.993Z,13.27
2019-03-21T11:04:17.433Z,13.25
2019-03-21T11:06:41.844Z,13.32
2019-03-21T11:09:07.969Z,13.44
2019-03-21T11:11:32.464Z,13.66
2019-03-21T11:13:56.913Z,13.62
2019-03-21T11:16:21.471Z,13.56
2019-03-21T11:18:45.970Z,13.60
2019-03-21T11:21:10.502Z,13.26
2019-03-21T11:23:34.997Z,13.41
2019-03-21T11:25:59.436Z,13.22
2019-03-21T11:28:23.857Z,13.50
2019-03-21T11:30:48.315Z,13.17
2019-03-21T11:33:12.812Z,13.23
2019-03-21T11:35:37.337Z,13.19
2019-03-21T11:38:02.209Z,13.83
2019-03-21T11:40:26.725Z,13.61
2019-03-21T11:42:51.128Z,13.54
2019-03-21T11:45:15.664Z,13.61
2019-03-21T11:47:42.062Z,13.87
2019-03-21T11:50:06.837Z,13.53
2019-03-21T11:52:31.243Z,13.49
2019-03-21T11:54:55.673Z,13.48
2019-03-21T11:57:20.175Z,13.69
2019-03-21T11:59:51.677Z,13.60
2019-03-21T12:02:10.770Z,13.97
2019-03-21T12:04:35.235Z,13.67
2019-03-21T12:06:59.785Z,13.84
2019-03-21T12:09:24.284Z,13.87
2019-03-21T12:11:48.809Z,13.99
2019-03-21T12:14:13.229Z,13.68
2019-03-21T12:16:37.752Z,13.67
2019-03-21T12:19:02.189Z,13.48
2019-03-21T12:21:26.647Z,14.02
2019-03-21T12:23:51.092Z,14.07
2019-03-21T12:26:15.549Z,13.79
2019-03-21T12:28:40.067Z,13.65
2019-03-21T12:31:04.682Z,14.05
2019-03-21T12:33:29.126Z,13.83
2019-03-21T12:35:53.574Z,13.86
2019-03-21T12:38:18.023Z,13.78
2019-03-21T12:40:42.629Z,13.45
2019-03-21T12:43:07.220Z,14.51
2019-03-21T12:45:31.742Z,13.66
2019-03-21T12:47:56.229Z,13.62
2019-03-21T12:50:20.651Z,13.87
2019-03-21T12:52:45.106Z,13.68
2019-03-21T12:55:09.772Z,13.63
2019-03-21T12:57:34.222Z,13.88
2019-03-21T12:59:58.661Z,13.92
2019-03-21T13:02:31.925Z,13.62
2019-03-21T13:04:49.643Z,13.49
2019-03-21T13:07:14.790Z,13.49
2019-03-21T13:09:39.642Z,13.10
2019-03-21T13:12:04.209Z,13.19
2019-03-21T13:14:28.621Z,13.43
2019-03-21T13:16:53.060Z,13.63
2019-03-21T13:19:17.468Z,13.45
2019-03-21T13:21:41.905Z,13.69
2019-03-21T13:24:06.352Z,13.30
2019-03-21T13:26:30.785Z,13.17
2019-03-21T13:28:55.219Z,13.24
2019-03-21T13:31:19.641Z,13.74
2019-03-21T13:33:44.094Z,14.35
2019-03-21T13:36:08.692Z,13.31
2019-03-21T13:38:33.142Z,13.99
2019-03-21T13:40:57.568Z,13.96
2019-03-21T13:43:22.001Z,14.36
2019-03-21T13:45:46.422Z,13.54
2019-03-21T13:48:10.983Z,13.45
2019-03-21T13:50:35.552Z,13.49
2019-03-21T13:53:04.815Z,13.67
2019-03-21T13:55:26.247Z,13.89
2019-03-21T13:57:50.706Z,14.09
2019-03-21T14:00:17.918Z,13.96
2019-03-21T14:02:42.451Z,14.89
2019-03-21T14:05:08.317Z,18.46
2019-03-21T14:07:32.861Z,17.89
2019-03-21T14:09:57.232Z,22.12
2019-03-21T14:12:21.663Z,23.14
2019-03-21T14:14:46.102Z,22.50
2019-03-21T14:17:21.312Z,22.84
2019-03-21T14:19:36.644Z,20.23
2019-03-21T14:22:01.075Z,23.39
2019-03-21T14:24:25.580Z,23.94
2019-03-21T14:26:49.987Z,23.27
2019-03-21T14:29:14.426Z,23.08
2019-03-21T14:31:38.847Z,22.70
2019-03-21T14:34:03.293Z,24.60
2019-03-21T14:36:27.707Z,22.84
2019-03-21T14:38:52.141Z,23.62
2019-03-21T14:41:16.640Z,24.05
2019-03-21T14:43:41.075Z,23.44
2019-03-21T14:46:05.572Z,24.87
2019-03-21T14:48:30.123Z,24.08
2019-03-21T14:50:54.561Z,25.25
2019-03-21T14:53:28.420Z,20.51
2019-03-21T14:55:47.652Z,21.75
2019-03-21T14:58:11.299Z,22.19
2019-03-21T15:00:35.813Z,20.42
2019-03-21T15:03:00.270Z,18.72
2019-03-21T15:05:24.723Z,17.49
2019-03-21T15:07:49.341Z,20.04
2019-03-21T15:10:16.391Z,21.40
2019-03-21T15:12:40.983Z,20.54
2019-03-21T15:15:07.957Z,24.21
2019-03-21T15:17:32.385Z,25.11
2019-03-21T15:19:56.892Z,21.80
2019-03-21T15:22:21.369Z,24.06
2019-03-21T15:24:46.003Z,23.57
2019-03-21T15:27:10.489Z,25.58
2019-03-21T15:29:35.535Z,22.10
2019-03-21T15:32:00.345Z,24.03
2019-03-21T15:34:24.786Z,21.80
2019-03-21T15:36:49.191Z,21.02
2019-03-21T15:39:13.790Z,21.67
2019-03-21T15:41:38.702Z,23.28
2019-03-21T15:44:03.308Z,23.51
2019-03-21T15:46:27.736Z,25.71
2019-03-21T15:48:52.223Z,22.22
2019-03-21T15:51:16.676Z,22.94
2019-03-21T15:53:53.249Z,26.46
2019-03-21T15:56:07.268Z,23.35
2019-03-21T15:58:31.684Z,22.24
2019-03-21T16:00:56.122Z,24.65
2019-03-21T16:03:20.988Z,21.99
2019-03-21T16:05:45.426Z,24.06
2019-03-21T16:08:10.093Z,22.83
2019-03-21T16:10:34.649Z,24.41
2019-03-21T16:12:59.071Z,22.96
2019-03-21T16:15:23.528Z,19.80
2019-03-21T16:17:47.935Z,21.30
2019-03-21T16:20:12.517Z,20.14
2019-03-21T16:22:37.071Z,21.55
2019-03-21T16:25:01.490Z,21.00
2019-03-21T16:27:25.958Z,21.80
2019-03-21T16:29:50.342Z,19.88
2019-03-21T16:32:14.775Z,19.54
2019-03-21T16:34:39.180Z,19.78
2019-03-21T16:37:03.689Z,18.91
2019-03-21T16:39:28.113Z,17.29
2019-03-21T16:41:52.613Z,17.08
2019-03-21T16:44:17.041Z,17.20
2019-03-21T16:46:41.470Z,16.47
2019-03-21T16:49:05.959Z,17.05
2019-03-21T16:51:30.397Z,16.79
2019-03-21T16:53:54.811Z,16.53
2019-03-21T16:56:19.312Z,15.92
2019-03-21T16:58:43.723Z,16.11
2019-03-21T17:01:08.166Z,16.57
2019-03-21T17:03:32.591Z,16.72
2019-03-21T17:05:57.036Z,16.86
2019-03-21T17:08:21.463Z,16.38
2019-03-21T17:10:45.963Z,16.58
2019-03-21T17:13:10.378Z,16.55
2019-03-21T17:15:34.800Z,17.06
2019-03-21T17:17:59.281Z,16.84
2019-03-21T17:20:23.698Z,15.91
2019-03-21T17:22:48.199Z,16.23
2019-03-21T17:25:13.187Z,16.09
2019-03-21T17:27:37.701Z,15.33
2019-03-21T17:30:02.203Z,15.18
2019-03-21T17:32:26.707Z,15.10
2019-03-21T17:34:51.159Z,15.48
2019-03-21T17:37:15.614Z,15.32
2019-03-21T17:39:40.025Z,15.42
2019-03-21T17:42:04.610Z,14.84
2019-03-21T17:44:29.035Z,15.09
2019-03-21T17:46:53.534Z,15.76
2019-03-21T17:49:17.957Z,15.77
2019-03-21T17:51:42.368Z,15.14
2019-03-21T17:54:06.816Z,14.90
2019-03-21T17:56:31.302Z,15.28
2019-03-21T17:58:55.854Z,14.88
2019-03-21T18:01:20.499Z,14.54
2019-03-21T18:03:45.026Z,14.69
2019-03-21T18:06:09.500Z,14.92
2019-03-21T18:08:34.016Z,15.51
2019-03-21T18:10:58.419Z,15.71
2019-03-21T18:13:22.844Z,15.63
2019-03-21T18:15:47.340Z,15.77
2019-03-21T18:18:11.780Z,15.78
2019-03-21T18:20:36.219Z,15.83
2019-03-21T18:23:00.793Z,15.64
2019-03-21T18:25:25.345Z,15.70
2019-03-21T18:27:49.843Z,15.59
2019-03-21T18:30:15.048Z,15.63
2019-03-21T18:32:39.457Z,15.41
2019-03-21T18:35:05.744Z,15.34
2019-03-21T18:37:30.158Z,15.33
2019-03-21T18:39:55.489Z,15.44
2019-03-21T18:42:19.918Z,15.32
2019-03-21T18:44:44.390Z,15.19
2019-03-21T18:47:08.906Z,15.23
2019-03-21T18:49:33.422Z,15.14
2019-03-21T18:51:57.915Z,15.19
2019-03-21T18:54:22.393Z,15.04
2019-03-21T18:56:46.821Z,15.03
2019-03-21T18:59:11.279Z,14.90
2019-03-21T19:01:35.757Z,14.90
2019-03-21T19:04:00.201Z,14.87
2019-03-21T19:06:24.609Z,14.92
2019-03-21T19:08:49.058Z,14.84
2019-03-21T19:11:13.473Z,14.86
2019-03-21T19:13:37.942Z,14.85
2019-03-21T19:16:02.339Z,14.86
2019-03-21T19:18:26.804Z,14.87
2019-03-21T19:20:51.325Z,14.45
2019-03-21T19:23:15.737Z,14.48
2019-03-21T19:25:40.186Z,14.47
2019-03-21T19:28:04.750Z,14.44
2019-03-21T19:30:29.276Z,14.35
2019-03-21T19:32:53.699Z,14.25
2019-03-21T19:35:18.220Z,14.14
2019-03-21T19:37:42.635Z,14.13
2019-03-21T19:40:09.859Z,13.99
2019-03-21T19:42:34.342Z,13.89
2019-03-21T19:44:58.848Z,13.93
2019-03-21T19:47:29.862Z,13.99
2019-03-21T19:49:49.429Z,13.78
2019-03-21T19:52:14.150Z,14.04
2019-03-21T19:54:38.656Z,13.88
2019-03-21T19:57:03.081Z,13.82
2019-03-21T19:59:27.495Z,13.78
2019-03-21T20:01:52.017Z,13.54
2019-03-21T20:04:16.425Z,13.56
2019-03-21T20:06:40.871Z,13.64
2019-03-21T20:09:07.433Z,13.64
2019-03-21T20:11:31.960Z,13.73
2019-03-21T20:13:56.448Z,13.66
2019-03-21T20:16:21.041Z,13.61
2019-03-21T20:18:45.484Z,13.47
2019-03-21T20:21:10.014Z,13.33
2019-03-21T20:23:34.443Z,13.27
2019-03-21T20:25:59.668Z,13.22
2019-03-21T20:28:24.105Z,13.13
2019-03-21T20:30:48.547Z,13.07
2019-03-21T20:33:12.984Z,13.26
2019-03-21T20:35:37.438Z,13.15
2019-03-21T20:38:01.929Z,13.11
2019-03-21T20:40:26.353Z,13.12
2019-03-21T20:42:50.830Z,13.05
2019-03-21T20:45:16.680Z,12.79
2019-03-21T20:47:41.198Z,12.92
2019-03-21T20:50:06.571Z,12.98
2019-03-21T20:52:30.991Z,12.93
2019-03-21T20:54:55.408Z,12.85
2019-03-21T20:57:19.839Z,12.85
2019-03-21T20:59:44.250Z,12.93
2019-03-21T21:02:08.750Z,12.85
2019-03-21T21:04:33.227Z,12.83
2019-03-21T21:06:57.658Z,12.67
2019-03-21T21:09:22.072Z,12.52
2019-03-21T21:11:46.490Z,12.47
2019-03-21T21:14:10.889Z,12.44
2019-03-21T21:16:35.322Z,12.47
2019-03-21T21:18:59.723Z,12.48
2019-03-21T21:21:24.184Z,12.43
2019-03-21T21:23:48.613Z,12.35
2019-03-21T21:26:13.103Z,12.29
2019-03-21T21:28:37.560Z,12.16
2019-03-21T21:31:02.005Z,12.14
2019-03-21T21:33:26.484Z,12.32
2019-03-21T21:35:50.898Z,12.10
2019-03-21T21:38:15.411Z,12.11
2019-03-21T21:40:39.822Z,12.03
2019-03-21T21:43:04.405Z,12.00
2019-03-21T21:45:28.828Z,11.92
2019-03-21T21:47:53.337Z,11.94
2019-03-21T21:50:18.557Z,11.79
2019-03-21T21:52:43.039Z,12.06
2019-03-21T21:55:08.808Z,11.95
2019-03-21T21:57:33.262Z,11.61
2019-03-21T21:59:57.689Z,11.82
2019-03-21T22:02:22.218Z,11.93
2019-03-21T22:04:46.642Z,11.69
2019-03-21T22:07:11.069Z,11.72
2019-03-21T22:09:35.509Z,11.49
2019-03-21T22:11:59.936Z,11.63
2019-03-21T22:14:24.388Z,11.63
2019-03-21T22:16:48.806Z,11.47
2019-03-21T22:19:13.239Z,11.34
2019-03-21T22:21:37.686Z,11.38
2019-03-21T22:24:02.119Z,11.42
2019-03-21T22:26:30.066Z,11.51
2019-03-21T22:28:54.681Z,11.54
2019-03-21T22:31:19.099Z,11.31
2019-03-21T22:33:43.560Z,10.96
2019-03-21T22:36:08.039Z,11.14
2019-03-21T22:38:32.557Z,11.30
2019-03-21T22:40:56.969Z,11.04
2019-03-21T22:43:21.387Z,11.32
2019-03-21T22:45:45.834Z,11.36
2019-03-21T22:48:10.336Z,11.18
2019-03-21T22:50:34.775Z,11.28
2019-03-21T22:52:59.260Z,11.20
2019-03-21T22:55:23.709Z,11.10
2019-03-21T22:57:48.300Z,11.01
2019-03-21T23:00:18.187Z,10.79
2019-03-21T23:02:42.589Z,10.89
2019-03-21T23:05:07.895Z,10.96
2019-03-21T23:07:32.308Z,11.04
2019-03-21T23:09:56.764Z,10.97
2019-03-21T23:12:21.298Z,10.87
2019-03-21T23:14:45.735Z,10.92
2019-03-21T23:17:10.155Z,10.82
2019-03-21T23:19:34.583Z,10.73
2019-03-21T23:21:59.097Z,10.78
2019-03-21T23:24:23.611Z,9.95
2019-03-21T23:26:52.925Z,10.38
2019-03-21T23:29:14.246Z,10.63
2019-03-21T23:31:38.654Z,10.61
2019-03-21T23:34:03.098Z,10.55
2019-03-21T23:36:27.579Z,10.76
2019-03-21T23:38:52.026Z,10.58
2019-03-21T23:41:16.510Z,10.54
2019-03-21T23:43:40.927Z,10.56
2019-03-21T23:46:05.354Z,10.48
2019-03-21T23:48:29.768Z,10.50
2019-03-21T23:50:54.276Z,10.39
2019-03-21T23:53:18.705Z,10.38
2019-03-21T23:55:43.209Z,10.33
2019-03-21T23:58:07.623Z,10.32
